sensor_id;sensor_type;location;lat;lon;timestamp;P1;durP1;ratioP1;P2;durP2;ratioP2
51184;SDS011;37248;59.350;18.050;2022-08-19T00:02:04;12.35;;;9.73;;
51184;SDS011;37248;59.350;18.050;2022-08-19T00:04:30;13.47;;;9.90;;
51184;SDS011;37248;59.350;18.050;2022-08-19T00:06:56;11.10;;;9.43;;
51184;SDS011;37248;59.350;18.050;2022-08-19T00:09:22;11.75;;;9.10;;
51184;SDS011;37248;59.350;18.050;2022-08-19T00:11:47;12.95;;;9.80;;
51184;SDS011;37248;59.350;18.050;2022-08-19T00:14:13;12.77;;;9.20;;
51184;SDS011;37248;59.350;18.050;2022-08-19T00:16:41;12.15;;;10.23;;
51184;SDS011;37248;59.350;18.050;2022-08-19T00:19:07;11.25;;;9.55;;
51184;SDS011;37248;59.350;18.050;2022-08-19T00:21:33;14.30;;;9.77;;
51184;SDS011;37248;59.350;18.050;2022-08-19T00:24:03;11.98;;;9.20;;
51184;SDS011;37248;59.350;18.050;2022-08-19T00:26:29;13.30;;;9.80;;
51184;SDS011;37248;59.350;18.050;2022-08-19T00:28:54;10.93;;;9.83;;
51184;SDS011;37248;59.350;18.050;2022-08-19T00:31:19;12.40;;;10.23;;
51184;SDS011;37248;59.350;18.050;2022-08-19T00:33:45;11.70;;;9.52;;
51184;SDS011;37248;59.350;18.050;2022-08-19T00:36:11;12.65;;;9.85;;
51184;SDS011;37248;59.350;18.050;2022-08-19T00:38:37;12.30;;;10.37;;
51184;SDS011;37248;59.350;18.050;2022-08-19T00:41:04;11.73;;;10.02;;
51184;SDS011;37248;59.350;18.050;2022-08-19T00:43:30;15.07;;;10.60;;
51184;SDS011;37248;59.350;18.050;2022-08-19T00:45:55;12.43;;;10.38;;
51184;SDS011;37248;59.350;18.050;2022-08-19T00:48:20;15.00;;;10.63;;
51184;SDS011;37248;59.350;18.050;2022-08-19T00:50:47;12.90;;;10.73;;
51184;SDS011;37248;59.350;18.050;2022-08-19T00:53:13;15.48;;;10.88;;
51184;SDS011;37248;59.350;18.050;2022-08-19T00:55:40;14.25;;;10.98;;
51184;SDS011;37248;59.350;18.050;2022-08-19T00:58:08;12.37;;;10.20;;
51184;SDS011;37248;59.350;18.050;2022-08-19T01:00:35;12.15;;;10.25;;
51184;SDS011;37248;59.350;18.050;2022-08-19T01:03:02;14.20;;;10.85;;
51184;SDS011;37248;59.350;18.050;2022-08-19T01:05:28;13.68;;;10.75;;
51184;SDS011;37248;59.350;18.050;2022-08-19T01:07:54;13.60;;;10.95;;
51184;SDS011;37248;59.350;18.050;2022-08-19T01:10:22;15.00;;;11.30;;
51184;SDS011;37248;59.350;18.050;2022-08-19T01:12:49;13.13;;;10.75;;
51184;SDS011;37248;59.350;18.050;2022-08-19T01:15:17;12.27;;;10.27;;
51184;SDS011;37248;59.350;18.050;2022-08-19T01:17:43;13.27;;;10.87;;
51184;SDS011;37248;59.350;18.050;2022-08-19T01:20:11;12.55;;;10.65;;
51184;SDS011;37248;59.350;18.050;2022-08-19T01:22:44;13.07;;;10.40;;
51184;SDS011;37248;59.350;18.050;2022-08-19T01:25:10;13.90;;;11.07;;
51184;SDS011;37248;59.350;18.050;2022-08-19T01:27:38;14.37;;;11.63;;
51184;SDS011;37248;59.350;18.050;2022-08-19T01:30:04;14.65;;;11.50;;
51184;SDS011;37248;59.350;18.050;2022-08-19T01:32:30;13.57;;;11.20;;
51184;SDS011;37248;59.350;18.050;2022-08-19T01:34:56;13.35;;;11.20;;
51184;SDS011;37248;59.350;18.050;2022-08-19T01:37:21;14.43;;;11.20;;
51184;SDS011;37248;59.350;18.050;2022-08-19T01:39:46;13.68;;;11.07;;
51184;SDS011;37248;59.350;18.050;2022-08-19T01:42:11;13.23;;;10.87;;
51184;SDS011;37248;59.350;18.050;2022-08-19T01:44:38;13.32;;;10.85;;
51184;SDS011;37248;59.350;18.050;2022-08-19T01:47:04;12.25;;;11.02;;
51184;SDS011;37248;59.350;18.050;2022-08-19T01:49:29;15.37;;;11.37;;
51184;SDS011;37248;59.350;18.050;2022-08-19T01:51:55;12.83;;;11.17;;
51184;SDS011;37248;59.350;18.050;2022-08-19T01:54:21;13.63;;;11.10;;
51184;SDS011;37248;59.350;18.050;2022-08-19T01:56:46;12.68;;;11.05;;
51184;SDS011;37248;59.350;18.050;2022-08-19T01:59:16;14.80;;;11.30;;
51184;SDS011;37248;59.350;18.050;2022-08-19T02:01:42;13.43;;;11.55;;
51184;SDS011;37248;59.350;18.050;2022-08-19T02:04:07;14.13;;;11.47;;
51184;SDS011;37248;59.350;18.050;2022-08-19T02:06:33;13.10;;;11.27;;
51184;SDS011;37248;59.350;18.050;2022-08-19T02:08:58;13.33;;;11.70;;
51184;SDS011;37248;59.350;18.050;2022-08-19T02:11:25;13.35;;;11.43;;
51184;SDS011;37248;59.350;18.050;2022-08-19T02:13:51;15.20;;;11.73;;
51184;SDS011;37248;59.350;18.050;2022-08-19T02:16:17;13.03;;;11.57;;
51184;SDS011;37248;59.350;18.050;2022-08-19T02:18:43;13.55;;;11.80;;
51184;SDS011;37248;59.350;18.050;2022-08-19T02:21:08;14.37;;;11.97;;
51184;SDS011;37248;59.350;18.050;2022-08-19T02:23:33;14.87;;;11.60;;
51184;SDS011;37248;59.350;18.050;2022-08-19T02:25:59;16.57;;;12.10;;
51184;SDS011;37248;59.350;18.050;2022-08-19T02:28:24;13.27;;;11.63;;
51184;SDS011;37248;59.350;18.050;2022-08-19T02:30:49;13.87;;;11.60;;
51184;SDS011;37248;59.350;18.050;2022-08-19T02:33:15;17.37;;;12.67;;
51184;SDS011;37248;59.350;18.050;2022-08-19T02:35:41;13.15;;;11.73;;
51184;SDS011;37248;59.350;18.050;2022-08-19T02:38:07;14.05;;;11.88;;
51184;SDS011;37248;59.350;18.050;2022-08-19T02:40:51;13.40;;;11.80;;
51184;SDS011;37248;59.350;18.050;2022-08-19T02:43:17;13.05;;;11.75;;
51184;SDS011;37248;59.350;18.050;2022-08-19T02:45:44;14.07;;;12.50;;
51184;SDS011;37248;59.350;18.050;2022-08-19T02:48:10;12.90;;;11.53;;
51184;SDS011;37248;59.350;18.050;2022-08-19T02:50:38;13.87;;;11.93;;
51184;SDS011;37248;59.350;18.050;2022-08-19T02:53:04;12.87;;;11.53;;
51184;SDS011;37248;59.350;18.050;2022-08-19T02:55:29;13.67;;;12.27;;
51184;SDS011;37248;59.350;18.050;2022-08-19T02:57:54;13.93;;;12.10;;
51184;SDS011;37248;59.350;18.050;2022-08-19T03:00:19;14.27;;;11.83;;
51184;SDS011;37248;59.350;18.050;2022-08-19T03:02:45;15.63;;;12.38;;
51184;SDS011;37248;59.350;18.050;2022-08-19T03:05:11;13.57;;;12.10;;
51184;SDS011;37248;59.350;18.050;2022-08-19T03:07:37;14.70;;;11.73;;
51184;SDS011;37248;59.350;18.050;2022-08-19T03:10:03;14.32;;;11.85;;
51184;SDS011;37248;59.350;18.050;2022-08-19T03:12:28;14.18;;;12.05;;
51184;SDS011;37248;59.350;18.050;2022-08-19T03:14:53;15.17;;;12.70;;
51184;SDS011;37248;59.350;18.050;2022-08-19T03:17:19;14.37;;;12.20;;
51184;SDS011;37248;59.350;18.050;2022-08-19T03:19:44;14.97;;;12.40;;
51184;SDS011;37248;59.350;18.050;2022-08-19T03:22:09;14.07;;;11.63;;
51184;SDS011;37248;59.350;18.050;2022-08-19T03:24:35;13.38;;;11.90;;
51184;SDS011;37248;59.350;18.050;2022-08-19T03:27:00;14.30;;;12.03;;
51184;SDS011;37248;59.350;18.050;2022-08-19T03:29:27;14.23;;;12.10;;
51184;SDS011;37248;59.350;18.050;2022-08-19T03:31:52;13.60;;;12.13;;
51184;SDS011;37248;59.350;18.050;2022-08-19T03:34:19;12.60;;;11.33;;
51184;SDS011;37248;59.350;18.050;2022-08-19T03:36:45;15.02;;;11.60;;
51184;SDS011;37248;59.350;18.050;2022-08-19T03:39:10;13.95;;;11.65;;
51184;SDS011;37248;59.350;18.050;2022-08-19T03:41:37;14.77;;;11.70;;
51184;SDS011;37248;59.350;18.050;2022-08-19T03:44:03;14.85;;;12.07;;
51184;SDS011;37248;59.350;18.050;2022-08-19T03:46:30;13.38;;;11.52;;
51184;SDS011;37248;59.350;18.050;2022-08-19T03:48:57;16.13;;;11.77;;
51184;SDS011;37248;59.350;18.050;2022-08-19T03:51:24;14.05;;;11.93;;
51184;SDS011;37248;59.350;18.050;2022-08-19T03:53:50;13.35;;;11.40;;
51184;SDS011;37248;59.350;18.050;2022-08-19T03:56:16;13.17;;;11.63;;
51184;SDS011;37248;59.350;18.050;2022-08-19T03:58:41;13.80;;;12.40;;
51184;SDS011;37248;59.350;18.050;2022-08-19T04:01:14;14.02;;;11.75;;
51184;SDS011;37248;59.350;18.050;2022-08-19T04:03:39;16.88;;;12.35;;
51184;SDS011;37248;59.350;18.050;2022-08-19T04:08:37;13.93;;;12.48;;
51184;SDS011;37248;59.350;18.050;2022-08-19T04:11:05;14.67;;;11.53;;
51184;SDS011;37248;59.350;18.050;2022-08-19T04:13:31;15.65;;;11.95;;
51184;SDS011;37248;59.350;18.050;2022-08-19T04:15:56;13.90;;;12.27;;
51184;SDS011;37248;59.350;18.050;2022-08-19T04:18:21;14.53;;;12.03;;
51184;SDS011;37248;59.350;18.050;2022-08-19T04:20:47;13.43;;;12.02;;
51184;SDS011;37248;59.350;18.050;2022-08-19T04:23:13;13.63;;;11.73;;
51184;SDS011;37248;59.350;18.050;2022-08-19T04:25:42;15.75;;;12.48;;
51184;SDS011;37248;59.350;18.050;2022-08-19T04:28:07;13.32;;;12.02;;
51184;SDS011;37248;59.350;18.050;2022-08-19T04:30:41;13.00;;;11.68;;
51184;SDS011;37248;59.350;18.050;2022-08-19T04:33:07;15.48;;;12.00;;
51184;SDS011;37248;59.350;18.050;2022-08-19T04:35:40;15.18;;;11.73;;
51184;SDS011;37248;59.350;18.050;2022-08-19T04:38:05;13.32;;;11.82;;
51184;SDS011;37248;59.350;18.050;2022-08-19T04:40:31;13.70;;;11.70;;
51184;SDS011;37248;59.350;18.050;2022-08-19T04:43:15;15.33;;;11.83;;
51184;SDS011;37248;59.350;18.050;2022-08-19T04:45:41;14.03;;;12.63;;
51184;SDS011;37248;59.350;18.050;2022-08-19T04:48:06;13.73;;;12.15;;
51184;SDS011;37248;59.350;18.050;2022-08-19T04:50:31;13.10;;;11.80;;
51184;SDS011;37248;59.350;18.050;2022-08-19T04:52:57;14.20;;;11.73;;
51184;SDS011;37248;59.350;18.050;2022-08-19T04:55:23;13.10;;;11.70;;
51184;SDS011;37248;59.350;18.050;2022-08-19T04:57:50;12.63;;;11.40;;
51184;SDS011;37248;59.350;18.050;2022-08-19T05:00:16;13.13;;;11.73;;
51184;SDS011;37248;59.350;18.050;2022-08-19T05:02:41;13.43;;;11.97;;
51184;SDS011;37248;59.350;18.050;2022-08-19T05:05:06;12.93;;;11.57;;
51184;SDS011;37248;59.350;18.050;2022-08-19T05:07:32;13.47;;;11.57;;
51184;SDS011;37248;59.350;18.050;2022-08-19T05:09:57;14.13;;;12.00;;
51184;SDS011;37248;59.350;18.050;2022-08-19T05:12:22;13.00;;;11.70;;
51184;SDS011;37248;59.350;18.050;2022-08-19T05:14:48;12.57;;;11.27;;
51184;SDS011;37248;59.350;18.050;2022-08-19T05:17:14;15.65;;;12.32;;
51184;SDS011;37248;59.350;18.050;2022-08-19T05:19:39;13.20;;;11.80;;
51184;SDS011;37248;59.350;18.050;2022-08-19T05:22:24;15.02;;;12.50;;
51184;SDS011;37248;59.350;18.050;2022-08-19T05:25:10;14.77;;;12.30;;
51184;SDS011;37248;59.350;18.050;2022-08-19T05:27:37;12.98;;;11.40;;
51184;SDS011;37248;59.350;18.050;2022-08-19T05:30:03;13.37;;;11.67;;
51184;SDS011;37248;59.350;18.050;2022-08-19T05:32:28;15.13;;;11.47;;
51184;SDS011;37248;59.350;18.050;2022-08-19T05:34:53;13.17;;;11.13;;
51184;SDS011;37248;59.350;18.050;2022-08-19T05:37:19;16.35;;;11.73;;
51184;SDS011;37248;59.350;18.050;2022-08-19T05:39:44;21.60;;;11.87;;
51184;SDS011;37248;59.350;18.050;2022-08-19T05:42:10;20.48;;;11.13;;
51184;SDS011;37248;59.350;18.050;2022-08-19T05:44:38;15.77;;;10.47;;
51184;SDS011;37248;59.350;18.050;2022-08-19T05:47:05;14.90;;;10.93;;
51184;SDS011;37248;59.350;18.050;2022-08-19T05:49:30;14.35;;;10.88;;
51184;SDS011;37248;59.350;18.050;2022-08-19T05:51:56;18.37;;;10.83;;
51184;SDS011;37248;59.350;18.050;2022-08-19T05:54:22;15.17;;;10.60;;
51184;SDS011;37248;59.350;18.050;2022-08-19T05:56:48;12.57;;;10.32;;
51184;SDS011;37248;59.350;18.050;2022-08-19T05:59:14;11.83;;;10.47;;
51184;SDS011;37248;59.350;18.050;2022-08-19T06:01:40;13.40;;;10.47;;
51184;SDS011;37248;59.350;18.050;2022-08-19T06:04:06;13.55;;;10.25;;
51184;SDS011;37248;59.350;18.050;2022-08-19T06:06:31;11.43;;;10.23;;
51184;SDS011;37248;59.350;18.050;2022-08-19T06:08:59;12.50;;;10.60;;
51184;SDS011;37248;59.350;18.050;2022-08-19T06:11:31;12.70;;;10.17;;
51184;SDS011;37248;59.350;18.050;2022-08-19T06:14:01;12.40;;;10.38;;
51184;SDS011;37248;59.350;18.050;2022-08-19T06:16:27;10.77;;;9.57;;
51184;SDS011;37248;59.350;18.050;2022-08-19T06:18:53;11.20;;;9.93;;
51184;SDS011;37248;59.350;18.050;2022-08-19T06:21:22;13.20;;;10.13;;
51184;SDS011;37248;59.350;18.050;2022-08-19T06:23:47;14.50;;;10.15;;
51184;SDS011;37248;59.350;18.050;2022-08-19T06:26:14;14.82;;;10.27;;
51184;SDS011;37248;59.350;18.050;2022-08-19T06:28:39;10.98;;;9.77;;
51184;SDS011;37248;59.350;18.050;2022-08-19T06:31:08;10.90;;;9.38;;
51184;SDS011;37248;59.350;18.050;2022-08-19T06:33:33;11.13;;;9.60;;
51184;SDS011;37248;59.350;18.050;2022-08-19T06:35:59;11.57;;;10.10;;
51184;SDS011;37248;59.350;18.050;2022-08-19T06:38:24;11.47;;;9.80;;
51184;SDS011;37248;59.350;18.050;2022-08-19T06:40:49;12.33;;;9.23;;
51184;SDS011;37248;59.350;18.050;2022-08-19T06:43:15;10.47;;;9.37;;
51184;SDS011;37248;59.350;18.050;2022-08-19T06:45:40;14.25;;;9.70;;
51184;SDS011;37248;59.350;18.050;2022-08-19T06:48:06;9.73;;;8.73;;
51184;SDS011;37248;59.350;18.050;2022-08-19T06:50:32;14.13;;;9.52;;
51184;SDS011;37248;59.350;18.050;2022-08-19T06:52:57;11.63;;;9.03;;
51184;SDS011;37248;59.350;18.050;2022-08-19T06:55:22;11.47;;;9.17;;
51184;SDS011;37248;59.350;18.050;2022-08-19T06:57:48;9.77;;;8.77;;
51184;SDS011;37248;59.350;18.050;2022-08-19T07:00:15;11.50;;;8.93;;
51184;SDS011;37248;59.350;18.050;2022-08-19T07:02:41;12.03;;;8.80;;
51184;SDS011;37248;59.350;18.050;2022-08-19T07:05:07;12.50;;;8.70;;
51184;SDS011;37248;59.350;18.050;2022-08-19T07:07:32;11.73;;;8.70;;
51184;SDS011;37248;59.350;18.050;2022-08-19T07:09:57;10.48;;;8.63;;
51184;SDS011;37248;59.350;18.050;2022-08-19T07:12:23;9.53;;;8.53;;
51184;SDS011;37248;59.350;18.050;2022-08-19T07:14:48;13.03;;;8.80;;
51184;SDS011;37248;59.350;18.050;2022-08-19T07:17:14;9.75;;;8.27;;
51184;SDS011;37248;59.350;18.050;2022-08-19T07:19:40;9.95;;;8.25;;
51184;SDS011;37248;59.350;18.050;2022-08-19T07:22:06;11.52;;;8.50;;
51184;SDS011;37248;59.350;18.050;2022-08-19T07:24:32;9.75;;;8.57;;
51184;SDS011;37248;59.350;18.050;2022-08-19T07:26:58;12.57;;;8.20;;
51184;SDS011;37248;59.350;18.050;2022-08-19T07:29:25;13.82;;;8.63;;
51184;SDS011;37248;59.350;18.050;2022-08-19T07:31:51;9.68;;;7.70;;
51184;SDS011;37248;59.350;18.050;2022-08-19T07:34:17;10.15;;;8.10;;
51184;SDS011;37248;59.350;18.050;2022-08-19T07:36:43;11.65;;;7.82;;
51184;SDS011;37248;59.350;18.050;2022-08-19T07:39:15;12.20;;;8.00;;
51184;SDS011;37248;59.350;18.050;2022-08-19T07:41:41;12.43;;;8.00;;
51184;SDS011;37248;59.350;18.050;2022-08-19T07:44:07;11.20;;;7.67;;
51184;SDS011;37248;59.350;18.050;2022-08-19T07:46:34;10.80;;;7.80;;
51184;SDS011;37248;59.350;18.050;2022-08-19T07:49:00;12.05;;;7.07;;
51184;SDS011;37248;59.350;18.050;2022-08-19T07:51:25;11.70;;;7.83;;
51184;SDS011;37248;59.350;18.050;2022-08-19T07:53:51;8.35;;;7.03;;
51184;SDS011;37248;59.350;18.050;2022-08-19T07:56:17;10.40;;;7.30;;
51184;SDS011;37248;59.350;18.050;2022-08-19T07:58:44;10.85;;;7.22;;
51184;SDS011;37248;59.350;18.050;2022-08-19T08:01:12;10.43;;;7.50;;
51184;SDS011;37248;59.350;18.050;2022-08-19T08:03:38;11.35;;;7.30;;
51184;SDS011;37248;59.350;18.050;2022-08-19T08:06:22;9.68;;;7.38;;
51184;SDS011;37248;59.350;18.050;2022-08-19T08:09:06;16.63;;;7.82;;
51184;SDS011;37248;59.350;18.050;2022-08-19T08:11:41;9.68;;;6.28;;
51184;SDS011;37248;59.350;18.050;2022-08-19T08:14:07;11.93;;;6.88;;
51184;SDS011;37248;59.350;18.050;2022-08-19T08:16:36;12.05;;;7.38;;
51184;SDS011;37248;59.350;18.050;2022-08-19T08:19:05;11.40;;;6.82;;
51184;SDS011;37248;59.350;18.050;2022-08-19T08:21:31;11.37;;;6.83;;
51184;SDS011;37248;59.350;18.050;2022-08-19T08:23:56;10.35;;;6.82;;
51184;SDS011;37248;59.350;18.050;2022-08-19T08:26:22;14.07;;;7.13;;
51184;SDS011;37248;59.350;18.050;2022-08-19T08:28:47;11.88;;;7.03;;
51184;SDS011;37248;59.350;18.050;2022-08-19T08:31:13;10.43;;;6.53;;
51184;SDS011;37248;59.350;18.050;2022-08-19T08:33:39;11.18;;;6.80;;
51184;SDS011;37248;59.350;18.050;2022-08-19T08:36:07;11.23;;;6.68;;
51184;SDS011;37248;59.350;18.050;2022-08-19T08:38:33;10.13;;;6.78;;
51184;SDS011;37248;59.350;18.050;2022-08-19T08:41:06;10.35;;;5.95;;
51184;SDS011;37248;59.350;18.050;2022-08-19T08:43:38;11.20;;;6.13;;
51184;SDS011;37248;59.350;18.050;2022-08-19T08:46:06;12.95;;;6.35;;
51184;SDS011;37248;59.350;18.050;2022-08-19T08:50:58;11.32;;;5.85;;
51184;SDS011;37248;59.350;18.050;2022-08-19T08:53:23;12.20;;;6.35;;
51184;SDS011;37248;59.350;18.050;2022-08-19T08:55:50;8.27;;;5.97;;
51184;SDS011;37248;59.350;18.050;2022-08-19T09:01:17;11.43;;;5.82;;
51184;SDS011;37248;59.350;18.050;2022-08-19T09:03:42;10.50;;;5.90;;
51184;SDS011;37248;59.350;18.050;2022-08-19T09:06:29;10.45;;;6.13;;
51184;SDS011;37248;59.350;18.050;2022-08-19T09:16:58;10.25;;;5.68;;
51184;SDS011;37248;59.350;18.050;2022-08-19T09:19:24;12.83;;;5.87;;
51184;SDS011;37248;59.350;18.050;2022-08-19T09:21:49;10.60;;;5.60;;
51184;SDS011;37248;59.350;18.050;2022-08-19T09:24:15;8.80;;;5.97;;
51184;SDS011;37248;59.350;18.050;2022-08-19T09:26:40;10.17;;;5.63;;
51184;SDS011;37248;59.350;18.050;2022-08-19T09:29:08;12.37;;;6.10;;
51184;SDS011;37248;59.350;18.050;2022-08-19T09:31:34;11.60;;;6.30;;
51184;SDS011;37248;59.350;18.050;2022-08-19T09:34:00;9.60;;;6.03;;
51184;SDS011;37248;59.350;18.050;2022-08-19T09:36:28;13.10;;;6.37;;
51184;SDS011;37248;59.350;18.050;2022-08-19T09:39:02;14.80;;;6.93;;
51184;SDS011;37248;59.350;18.050;2022-08-19T09:41:27;18.83;;;6.70;;
51184;SDS011;37248;59.350;18.050;2022-08-19T09:43:54;68.10;;;9.60;;
51184;SDS011;37248;59.350;18.050;2022-08-19T09:46:21;63.15;;;10.25;;
51184;SDS011;37248;59.350;18.050;2022-08-19T09:48:47;23.60;;;8.85;;
51184;SDS011;37248;59.350;18.050;2022-08-19T09:51:15;34.42;;;8.25;;
51184;SDS011;37248;59.350;18.050;2022-08-19T09:53:40;29.25;;;8.00;;
51184;SDS011;37248;59.350;18.050;2022-08-19T09:56:06;18.87;;;7.07;;
51184;SDS011;37248;59.350;18.050;2022-08-19T09:58:32;18.95;;;7.05;;
51184;SDS011;37248;59.350;18.050;2022-08-19T10:00:58;13.55;;;6.45;;
51184;SDS011;37248;59.350;18.050;2022-08-19T10:03:24;13.68;;;6.25;;
51184;SDS011;37248;59.350;18.050;2022-08-19T10:05:50;13.35;;;6.43;;
51184;SDS011;37248;59.350;18.050;2022-08-19T10:08:25;13.30;;;5.85;;
51184;SDS011;37248;59.350;18.050;2022-08-19T10:10:51;15.32;;;6.07;;
51184;SDS011;37248;59.350;18.050;2022-08-19T10:13:17;12.55;;;6.13;;
51184;SDS011;37248;59.350;18.050;2022-08-19T10:15:43;15.38;;;5.85;;
51184;SDS011;37248;59.350;18.050;2022-08-19T10:18:08;11.27;;;5.97;;
51184;SDS011;37248;59.350;18.050;2022-08-19T10:20:35;13.57;;;5.65;;
51184;SDS011;37248;59.350;18.050;2022-08-19T10:23:01;11.43;;;5.57;;
51184;SDS011;37248;59.350;18.050;2022-08-19T10:25:26;12.60;;;5.53;;
51184;SDS011;37248;59.350;18.050;2022-08-19T10:27:52;10.27;;;5.50;;
51184;SDS011;37248;59.350;18.050;2022-08-19T10:30:17;12.07;;;5.80;;
51184;SDS011;37248;59.350;18.050;2022-08-19T10:32:43;13.95;;;5.47;;
51184;SDS011;37248;59.350;18.050;2022-08-19T10:35:11;12.85;;;6.05;;
51184;SDS011;37248;59.350;18.050;2022-08-19T10:37:37;7.95;;;5.25;;
51184;SDS011;37248;59.350;18.050;2022-08-19T10:40:03;12.47;;;5.70;;
51184;SDS011;37248;59.350;18.050;2022-08-19T10:42:29;11.93;;;5.20;;
51184;SDS011;37248;59.350;18.050;2022-08-19T10:44:56;7.82;;;5.57;;
51184;SDS011;37248;59.350;18.050;2022-08-19T10:47:21;12.33;;;5.43;;
51184;SDS011;37248;59.350;18.050;2022-08-19T10:49:48;9.60;;;5.90;;
51184;SDS011;37248;59.350;18.050;2022-08-19T10:52:32;6.82;;;4.97;;
51184;SDS011;37248;59.350;18.050;2022-08-19T10:55:01;9.63;;;5.43;;
51184;SDS011;37248;59.350;18.050;2022-08-19T10:57:45;7.90;;;5.20;;
51184;SDS011;37248;59.350;18.050;2022-08-19T11:00:11;12.00;;;5.40;;
51184;SDS011;37248;59.350;18.050;2022-08-19T11:02:36;7.50;;;5.20;;
51184;SDS011;37248;59.350;18.050;2022-08-19T11:05:02;9.37;;;5.23;;
51184;SDS011;37248;59.350;18.050;2022-08-19T11:07:28;7.32;;;5.40;;
51184;SDS011;37248;59.350;18.050;2022-08-19T11:09:53;9.25;;;5.32;;
51184;SDS011;37248;59.350;18.050;2022-08-19T11:12:18;7.77;;;5.60;;
51184;SDS011;37248;59.350;18.050;2022-08-19T11:14:44;10.40;;;4.93;;
51184;SDS011;37248;59.350;18.050;2022-08-19T11:17:09;7.68;;;4.63;;
51184;SDS011;37248;59.350;18.050;2022-08-19T11:19:39;11.73;;;5.70;;
51184;SDS011;37248;59.350;18.050;2022-08-19T11:22:06;8.47;;;5.40;;
51184;SDS011;37248;59.350;18.050;2022-08-19T11:24:33;9.65;;;5.15;;
51184;SDS011;37248;59.350;18.050;2022-08-19T11:27:03;7.80;;;5.10;;
51184;SDS011;37248;59.350;18.050;2022-08-19T11:29:29;10.25;;;5.00;;
51184;SDS011;37248;59.350;18.050;2022-08-19T11:31:55;7.17;;;4.97;;
51184;SDS011;37248;59.350;18.050;2022-08-19T11:34:21;7.47;;;5.20;;
51184;SDS011;37248;59.350;18.050;2022-08-19T11:36:47;8.10;;;5.03;;
51184;SDS011;37248;59.350;18.050;2022-08-19T11:39:13;9.52;;;4.95;;
51184;SDS011;37248;59.350;18.050;2022-08-19T11:41:39;9.90;;;5.18;;
51184;SDS011;37248;59.350;18.050;2022-08-19T11:44:04;6.85;;;4.82;;
51184;SDS011;37248;59.350;18.050;2022-08-19T11:46:32;7.70;;;4.68;;
51184;SDS011;37248;59.350;18.050;2022-08-19T11:48:58;7.63;;;4.73;;
51184;SDS011;37248;59.350;18.050;2022-08-19T11:51:25;7.78;;;5.05;;
51184;SDS011;37248;59.350;18.050;2022-08-19T11:53:51;7.20;;;4.83;;
51184;SDS011;37248;59.350;18.050;2022-08-19T11:56:17;8.43;;;4.85;;
51184;SDS011;37248;59.350;18.050;2022-08-19T11:58:43;5.83;;;4.70;;
51184;SDS011;37248;59.350;18.050;2022-08-19T12:01:09;6.37;;;4.60;;
51184;SDS011;37248;59.350;18.050;2022-08-19T12:03:40;6.90;;;4.60;;
51184;SDS011;37248;59.350;18.050;2022-08-19T12:06:07;9.43;;;4.70;;
51184;SDS011;37248;59.350;18.050;2022-08-19T12:08:32;6.20;;;4.50;;
51184;SDS011;37248;59.350;18.050;2022-08-19T12:10:58;6.83;;;4.47;;
51184;SDS011;37248;59.350;18.050;2022-08-19T12:13:26;7.35;;;4.78;;
51184;SDS011;37248;59.350;18.050;2022-08-19T12:15:53;8.18;;;4.55;;
51184;SDS011;37248;59.350;18.050;2022-08-19T12:18:19;7.07;;;5.00;;
51184;SDS011;37248;59.350;18.050;2022-08-19T12:20:44;7.17;;;5.10;;
51184;SDS011;37248;59.350;18.050;2022-08-19T12:23:10;7.13;;;4.80;;
51184;SDS011;37248;59.350;18.050;2022-08-19T12:25:36;5.70;;;4.60;;
51184;SDS011;37248;59.350;18.050;2022-08-19T12:28:02;6.17;;;4.50;;
51184;SDS011;37248;59.350;18.050;2022-08-19T12:30:28;6.80;;;4.87;;
51184;SDS011;37248;59.350;18.050;2022-08-19T12:32:53;7.27;;;4.63;;
51184;SDS011;37248;59.350;18.050;2022-08-19T12:35:18;8.00;;;4.90;;
51184;SDS011;37248;59.350;18.050;2022-08-19T12:37:45;7.30;;;4.57;;
51184;SDS011;37248;59.350;18.050;2022-08-19T12:40:11;5.45;;;4.75;;
51184;SDS011;37248;59.350;18.050;2022-08-19T12:42:37;5.67;;;4.60;;
51184;SDS011;37248;59.350;18.050;2022-08-19T12:45:06;6.43;;;4.90;;
51184;SDS011;37248;59.350;18.050;2022-08-19T12:47:31;8.03;;;5.33;;
51184;SDS011;37248;59.350;18.050;2022-08-19T12:49:57;8.23;;;6.10;;
51184;SDS011;37248;59.350;18.050;2022-08-19T12:52:23;8.63;;;5.53;;
51184;SDS011;37248;59.350;18.050;2022-08-19T12:54:48;7.18;;;5.45;;
51184;SDS011;37248;59.350;18.050;2022-08-19T12:57:14;7.72;;;5.28;;
51184;SDS011;37248;59.350;18.050;2022-08-19T12:59:40;8.25;;;5.60;;
51184;SDS011;37248;59.350;18.050;2022-08-19T13:02:06;6.68;;;5.38;;
51184;SDS011;37248;59.350;18.050;2022-08-19T13:04:32;6.70;;;5.20;;
51184;SDS011;37248;59.350;18.050;2022-08-19T13:07:01;8.45;;;5.45;;
51184;SDS011;37248;59.350;18.050;2022-08-19T13:09:26;7.00;;;5.60;;
51184;SDS011;37248;59.350;18.050;2022-08-19T13:11:51;6.20;;;5.33;;
51184;SDS011;37248;59.350;18.050;2022-08-19T13:14:16;7.63;;;5.47;;
51184;SDS011;37248;59.350;18.050;2022-08-19T13:16:42;9.57;;;6.20;;
51184;SDS011;37248;59.350;18.050;2022-08-19T13:19:08;6.97;;;5.45;;
51184;SDS011;37248;59.350;18.050;2022-08-19T13:21:33;8.47;;;5.30;;
51184;SDS011;37248;59.350;18.050;2022-08-19T13:23:58;11.00;;;6.40;;
51184;SDS011;37248;59.350;18.050;2022-08-19T13:26:23;7.70;;;5.27;;
51184;SDS011;37248;59.350;18.050;2022-08-19T13:28:49;6.60;;;5.03;;
51184;SDS011;37248;59.350;18.050;2022-08-19T13:31:33;8.00;;;5.47;;
51184;SDS011;37248;59.350;18.050;2022-08-19T13:34:18;7.00;;;5.03;;
51184;SDS011;37248;59.350;18.050;2022-08-19T13:36:44;8.85;;;5.18;;
51184;SDS011;37248;59.350;18.050;2022-08-19T13:39:10;7.67;;;5.20;;
51184;SDS011;37248;59.350;18.050;2022-08-19T13:41:36;10.10;;;5.63;;
51184;SDS011;37248;59.350;18.050;2022-08-19T13:44:01;6.50;;;5.50;;
51184;SDS011;37248;59.350;18.050;2022-08-19T13:46:27;6.57;;;5.07;;
51184;SDS011;37248;59.350;18.050;2022-08-19T13:48:54;6.68;;;4.97;;
51184;SDS011;37248;59.350;18.050;2022-08-19T13:51:19;8.20;;;5.27;;
51184;SDS011;37248;59.350;18.050;2022-08-19T13:53:44;7.77;;;5.40;;
51184;SDS011;37248;59.350;18.050;2022-08-19T13:56:13;8.97;;;5.77;;
51184;SDS011;37248;59.350;18.050;2022-08-19T13:58:38;6.82;;;5.20;;
51184;SDS011;37248;59.350;18.050;2022-08-19T14:01:04;7.67;;;5.00;;
51184;SDS011;37248;59.350;18.050;2022-08-19T14:03:30;6.13;;;5.03;;
51184;SDS011;37248;59.350;18.050;2022-08-19T14:05:55;6.03;;;5.20;;
51184;SDS011;37248;59.350;18.050;2022-08-19T14:08:21;6.85;;;5.38;;
51184;SDS011;37248;59.350;18.050;2022-08-19T14:10:46;5.70;;;4.83;;
51184;SDS011;37248;59.350;18.050;2022-08-19T14:13:16;6.90;;;4.72;;
51184;SDS011;37248;59.350;18.050;2022-08-19T14:15:42;5.97;;;4.63;;
51184;SDS011;37248;59.350;18.050;2022-08-19T14:18:07;6.57;;;4.60;;
51184;SDS011;37248;59.350;18.050;2022-08-19T14:20:36;5.90;;;4.63;;
51184;SDS011;37248;59.350;18.050;2022-08-19T14:23:01;6.13;;;5.03;;
51184;SDS011;37248;59.350;18.050;2022-08-19T14:25:27;6.50;;;4.90;;
51184;SDS011;37248;59.350;18.050;2022-08-19T14:27:53;7.35;;;4.95;;
51184;SDS011;37248;59.350;18.050;2022-08-19T14:30:20;7.30;;;5.00;;
51184;SDS011;37248;59.350;18.050;2022-08-19T14:32:45;6.65;;;4.78;;
51184;SDS011;37248;59.350;18.050;2022-08-19T14:35:11;6.50;;;4.90;;